createdAt,value
2022-12-24T00:01:01.858Z,99745.94
2022-12-24T00:03:03.729Z,99754.00
2022-12-24T00:05:06.201Z,99757.56
2022-12-24T00:07:07.721Z,99756.44
2022-12-24T00:09:09.342Z,99751.31
2022-12-24T00:11:10.979Z,99755.25
2022-12-24T00:13:13.694Z,99751.22
2022-12-24T00:15:15.236Z,99764.44
2022-12-24T00:17:17.012Z,99752.56
2022-12-24T00:19:18.634Z,99752.28
2022-12-24T00:21:20.408Z,99746.50
2022-12-24T00:23:21.989Z,99752.00
2022-12-24T00:25:23.515Z,99752.16
2022-12-24T00:27:25.130Z,99749.44
2022-12-24T00:29:28.054Z,99759.56
2022-12-24T00:31:29.922Z,99758.00
2022-12-24T00:33:31.550Z,99760.94
2022-12-24T00:35:33.737Z,99754.72
2022-12-24T00:37:35.288Z,99751.59
2022-12-24T00:39:36.825Z,99766.38
2022-12-24T00:41:38.356Z,99753.16
2022-12-24T00:43:39.851Z,99757.44
2022-12-24T00:45:42.907Z,99770.13
2022-12-24T00:47:44.458Z,99765.00
2022-12-24T00:49:45.992Z,99768.88
2022-12-24T00:51:47.552Z,99768.78
2022-12-24T00:53:49.527Z,99776.78
2022-12-24T00:55:51.069Z,99776.00
2022-12-24T00:57:52.652Z,99778.97
2022-12-24T00:59:54.140Z,99790.28
2022-12-24T01:01:57.138Z,99791.13
2022-12-24T01:03:58.769Z,99793.19
2022-12-24T01:06:00.288Z,99789.19
2022-12-24T01:08:01.857Z,99790.28
2022-12-24T01:10:04.195Z,99787.44
2022-12-24T01:12:06.006Z,99784.25
2022-12-24T01:14:07.884Z,99790.28
2022-12-24T01:16:17.149Z,99787.47
2022-12-24T01:18:21.526Z,99792.72
2022-12-24T01:20:23.069Z,99801.44
2022-12-24T01:22:24.724Z,99795.41
2022-12-24T01:24:26.063Z,99802.41
2022-12-24T01:26:27.652Z,99798.06
2022-12-24T01:28:29.420Z,99798.72
2022-12-24T01:30:31.058Z,99810.53
2022-12-24T01:32:32.386Z,99803.00
2022-12-24T01:34:35.659Z,99802.13
2022-12-24T01:36:37.359Z,99800.97
2022-12-24T01:38:39.821Z,99806.19
2022-12-24T01:40:42.531Z,99808.28
2022-12-24T01:42:47.937Z,99803.53
2022-12-24T01:44:51.937Z,99796.63
2022-12-24T01:46:57.789Z,99814.00
2022-12-24T01:49:02.724Z,99816.75
2022-12-24T01:51:11.992Z,99820.88
2022-12-24T01:53:14.912Z,99821.50
2022-12-24T01:55:19.161Z,99824.22
2022-12-24T01:57:24.315Z,99820.56
2022-12-24T01:59:26.403Z,99832.63
2022-12-24T02:01:28.113Z,99822.91
2022-12-24T02:03:29.901Z,99831.44
2022-12-24T02:05:34.772Z,99840.31
2022-12-24T02:07:38.154Z,99843.72
2022-12-24T02:09:40.126Z,99847.47
2022-12-24T02:11:42.927Z,99842.63
2022-12-24T02:13:47.858Z,99851.19
2022-12-24T02:16:01.743Z,99861.47
2022-12-24T02:18:09.719Z,99863.09
2022-12-24T02:20:37.900Z,99862.38
2022-12-24T02:23:02.111Z,99844.41
2022-12-24T02:25:23.456Z,99874.53
2022-12-24T02:27:32.514Z,99871.97
2022-12-24T02:30:05.262Z,99879.03
2022-12-24T02:32:14.207Z,99878.25
2022-12-24T02:34:25.379Z,99887.41
2022-12-24T02:36:34.361Z,99875.59
2022-12-24T02:38:46.479Z,99887.41
2022-12-24T02:40:52.016Z,99887.72
2022-12-24T02:42:58.729Z,99885.56
2022-12-24T02:45:07.900Z,99903.28
2022-12-24T02:47:11.377Z,99902.97
2022-12-24T02:49:13.832Z,99900.97
2022-12-24T02:51:15.920Z,99911.47
2022-12-24T02:53:17.474Z,99913.09
2022-12-24T02:55:22.732Z,99913.72
2022-12-24T02:57:33.495Z,99922.09
2022-12-24T02:59:57.224Z,99926.16
2022-12-24T03:02:10.902Z,99913.81
2022-12-24T03:04:22.724Z,99912.72
2022-12-24T03:06:33.604Z,99913.41
2022-12-24T03:08:44.437Z,99914.31
2022-12-24T03:10:50.712Z,99919.25
2022-12-24T03:12:58.776Z,99928.81
2022-12-24T03:15:00.983Z,99922.25
2022-12-24T03:17:04.252Z,99917.97
2022-12-24T03:19:05.901Z,99918.84
2022-12-24T03:21:09.736Z,99939.19
2022-12-24T03:23:12.633Z,99926.84
2022-12-24T03:25:14.249Z,99937.25
2022-12-24T03:27:15.901Z,99927.84
2022-12-24T03:29:18.401Z,99935.13
2022-12-24T03:31:20.698Z,99932.34
2022-12-24T03:33:23.703Z,99940.91
2022-12-24T03:35:25.563Z,99939.97
2022-12-24T03:37:27.100Z,99948.53
2022-12-24T03:39:28.783Z,99954.38
2022-12-24T03:41:30.137Z,99954.38
2022-12-24T03:43:32.189Z,99955.53
2022-12-24T03:45:33.782Z,99961.00
2022-12-24T03:47:35.162Z,99964.50
2022-12-24T03:49:38.099Z,99967.53
2022-12-24T03:51:39.607Z,99967.91
2022-12-24T03:53:41.213Z,99975.97
2022-12-24T03:55:45.211Z,99985.09
2022-12-24T03:57:46.792Z,99982.91
2022-12-24T03:59:48.325Z,99973.81
2022-12-24T04:01:50.323Z,99976.06
2022-12-24T04:03:52.143Z,99975.28
2022-12-24T04:06:01.895Z,99973.56
2022-12-24T04:08:03.456Z,99981.50
2022-12-24T04:10:05.753Z,99983.34
2022-12-24T04:12:07.762Z,99983.84
2022-12-24T04:14:09.330Z,99991.56
2022-12-24T04:16:13.103Z,99990.56
2022-12-24T04:18:14.714Z,99985.34
2022-12-24T04:20:16.377Z,99981.84
2022-12-24T04:22:19.103Z,99979.47
2022-12-24T04:24:20.680Z,99984.41
2022-12-24T04:26:22.309Z,99989.94
2022-12-24T04:28:23.646Z,100003.56
2022-12-24T04:30:25.460Z,99994.69
2022-12-24T04:32:27.348Z,99996.28
2022-12-24T04:34:28.913Z,100012.78
2022-12-24T04:36:30.568Z,100016.19
2022-12-24T04:38:33.795Z,100023.97
2022-12-24T04:40:36.999Z,100022.97
2022-12-24T04:42:38.687Z,100022.28
2022-12-24T04:44:40.018Z,100032.41
2022-12-24T04:46:41.572Z,100036.63
2022-12-24T04:48:43.268Z,100040.97
2022-12-24T04:50:44.822Z,100041.47
2022-12-24T04:52:46.386Z,100030.97
2022-12-24T04:54:49.356Z,100038.75
2022-12-24T04:56:50.885Z,100043.25
2022-12-24T04:58:53.111Z,100045.22
2022-12-24T05:00:55.148Z,100047.81
2022-12-24T05:02:56.813Z,100048.22
2022-12-24T05:04:58.193Z,100054.38
2022-12-24T05:06:59.747Z,100051.94
2022-12-24T05:09:01.448Z,100056.03
2022-12-24T05:11:05.223Z,100055.88
2022-12-24T05:13:06.748Z,100056.97
2022-12-24T05:15:08.817Z,100054.16
2022-12-24T05:17:10.543Z,100032.22
2022-12-24T05:19:12.119Z,100045.22
2022-12-24T05:21:16.009Z,100055.19
2022-12-24T05:23:19.013Z,100054.31
2022-12-24T05:25:20.572Z,100052.69
2022-12-24T05:27:23.525Z,100052.38
2022-12-24T05:29:25.097Z,100051.59
2022-12-24T05:31:29.778Z,100058.75
2022-12-24T05:33:31.258Z,100057.13
2022-12-24T05:35:32.815Z,100059.84
2022-12-24T05:37:34.404Z,100052.69
2022-12-24T05:39:35.751Z,100050.56
2022-12-24T05:41:37.275Z,100048.75
2022-12-24T05:43:40.359Z,100052.34
2022-12-24T05:45:41.899Z,100055.28
2022-12-24T05:47:43.849Z,100067.72
2022-12-24T05:49:45.454Z,100073.06
2022-12-24T05:51:46.978Z,100072.78
2022-12-24T05:53:49.537Z,100077.84
2022-12-24T05:55:54.053Z,100085.16
2022-12-24T05:57:55.593Z,100085.00
2022-12-24T05:59:58.525Z,100084.72
2022-12-24T06:02:00.310Z,100097.56
2022-12-24T06:04:02.105Z,100098.00
2022-12-24T06:06:06.728Z,100088.72
2022-12-24T06:08:08.294Z,100091.44
2022-12-24T06:10:10.509Z,100086.88
2022-12-24T06:12:12.052Z,100093.94
2022-12-24T06:14:15.516Z,100089.56
2022-12-24T06:16:19.948Z,100099.44
2022-12-24T06:18:21.659Z,100105.94
2022-12-24T06:20:23.010Z,100108.59
2022-12-24T06:22:24.593Z,100105.00
2022-12-24T06:24:26.098Z,100116.59
2022-12-24T06:26:27.671Z,100100.50
2022-12-24T06:28:30.003Z,100109.38
2022-12-24T06:30:31.557Z,100105.28
2022-12-24T06:32:34.556Z,100122.59
2022-12-24T06:34:36.102Z,100129.59
2022-12-24T06:36:37.642Z,100123.13
2022-12-24T06:38:39.222Z,100132.88
2022-12-24T06:40:42.317Z,100130.81
2022-12-24T06:42:43.891Z,100135.03
2022-12-24T06:44:45.428Z,100132.09
2022-12-24T06:46:47.044Z,100114.28
2022-12-24T06:48:50.002Z,100122.16
2022-12-24T06:50:51.650Z,100123.13
2022-12-24T06:52:54.987Z,100150.47
2022-12-24T06:54:56.513Z,100148.63
2022-12-24T06:56:58.172Z,100130.66
2022-12-24T06:59:05.108Z,100148.91
2022-12-24T07:01:09.451Z,100159.63
2022-12-24T07:03:11.928Z,100164.63
2022-12-24T07:05:14.885Z,100166.63
2022-12-24T07:07:16.571Z,100170.00
2022-12-24T07:09:17.956Z,100158.63
2022-12-24T07:11:20.054Z,100165.44
2022-12-24T07:13:21.786Z,100168.34
2022-12-24T07:15:23.337Z,100176.22
2022-12-24T07:17:24.992Z,100177.50
2022-12-24T07:19:26.366Z,100185.41
2022-12-24T07:21:29.419Z,100179.38
2022-12-24T07:23:31.051Z,100182.09
2022-12-24T07:25:32.384Z,100193.53
2022-12-24T07:27:34.012Z,100201.00
2022-12-24T07:29:35.382Z,100208.81
2022-12-24T07:31:37.016Z,100213.47
2022-12-24T07:33:38.505Z,100210.53
2022-12-24T07:35:40.088Z,100199.97
2022-12-24T07:37:42.837Z,100208.44
2022-12-24T07:39:44.932Z,100203.97
2022-12-24T07:41:46.445Z,100212.63
2022-12-24T07:43:47.985Z,100215.75
2022-12-24T07:45:49.994Z,100211.75
2022-12-24T07:47:51.537Z,100218.25
2022-12-24T07:49:53.755Z,100231.00
2022-12-24T07:51:55.339Z,100233.84
2022-12-24T07:53:58.049Z,100231.16
2022-12-24T07:56:06.178Z,100229.66
2022-12-24T07:58:10.573Z,100234.41
2022-12-24T08:00:12.744Z,100247.34
2022-12-24T08:02:18.263Z,100247.72
2022-12-24T08:04:20.361Z,100238.03
2022-12-24T08:06:21.891Z,100232.03
2022-12-24T08:08:23.480Z,100231.63
2022-12-24T08:10:26.313Z,100224.47
2022-12-24T08:12:30.723Z,100225.84
2022-12-24T08:14:32.291Z,100235.38
2022-12-24T08:16:33.908Z,100241.44
2022-12-24T08:18:35.560Z,100239.88
2022-12-24T08:20:38.440Z,100235.06
2022-12-24T08:22:39.961Z,100242.16
2022-12-24T08:24:41.570Z,100243.91
2022-12-24T08:26:44.249Z,100240.31
2022-12-24T08:28:45.806Z,100250.69
2022-12-24T08:30:48.290Z,100255.34
2022-12-24T08:32:49.811Z,100246.69
2022-12-24T08:34:51.505Z,100249.34
2022-12-24T08:36:53.015Z,100247.47
2022-12-24T08:38:54.554Z,100261.72
2022-12-24T08:40:56.423Z,100266.78
2022-12-24T08:43:01.696Z,100258.50
2022-12-24T08:45:03.566Z,100264.06
2022-12-24T08:47:05.109Z,100235.59
2022-12-24T08:49:06.642Z,100264.47
2022-12-24T08:51:09.297Z,100266.72
2022-12-24T08:53:11.280Z,100262.50
2022-12-24T08:55:12.844Z,100272.16
2022-12-24T08:57:14.385Z,100274.09
2022-12-24T08:59:17.141Z,100279.25
2022-12-24T09:01:20.079Z,100277.25
2022-12-24T09:03:27.452Z,100280.09
2022-12-24T09:05:29.757Z,100276.94
2022-12-24T09:07:31.288Z,100279.34
2022-12-24T09:09:37.867Z,100291.19
2022-12-24T09:11:39.843Z,100294.84
2022-12-24T09:13:41.686Z,100295.53
2022-12-24T09:15:52.938Z,100298.97
2022-12-24T09:17:54.534Z,100293.84
2022-12-24T09:19:55.865Z,100317.47
2022-12-24T09:21:57.365Z,100316.88
2022-12-24T09:23:58.904Z,100302.13
2022-12-24T09:26:00.410Z,100312.03
2022-12-24T09:28:01.926Z,100309.94
2022-12-24T09:30:04.692Z,100317.47
2022-12-24T09:32:07.869Z,100331.50
2022-12-24T09:34:09.711Z,100333.34
2022-12-24T09:36:11.713Z,100327.19
2022-12-24T09:38:13.238Z,100336.22
2022-12-24T09:40:24.217Z,100331.06
2022-12-24T09:42:37.286Z,100339.56
2022-12-24T09:44:45.309Z,100345.47
2022-12-24T09:46:49.485Z,100342.16
2022-12-24T09:48:55.595Z,100349.63
2022-12-24T09:51:01.380Z,100358.28
2022-12-24T09:53:10.615Z,100365.00
2022-12-24T09:55:20.957Z,100363.84
2022-12-24T09:57:28.188Z,100361.53
2022-12-24T09:59:39.667Z,100361.56
2022-12-24T10:01:41.757Z,100368.22
2022-12-24T10:03:44.026Z,100377.19
2022-12-24T10:05:57.608Z,100382.97
2022-12-24T10:08:10.861Z,100387.78
2022-12-24T10:10:23.777Z,100388.34
2022-12-24T10:12:32.363Z,100385.78
2022-12-24T10:14:45.662Z,100384.69
2022-12-24T10:16:57.008Z,100388.84
2022-12-24T10:19:10.291Z,100397.81
2022-12-24T10:21:16.572Z,100402.16
2022-12-24T10:23:24.167Z,100407.81
2022-12-24T10:25:30.636Z,100402.06
2022-12-24T10:27:36.341Z,100401.09
2022-12-24T10:29:42.314Z,100408.41
2022-12-24T10:31:53.795Z,100413.91
2022-12-24T10:33:59.769Z,100419.56
2022-12-24T10:36:05.387Z,100422.63
2022-12-24T10:38:11.200Z,100430.00
2022-12-24T10:40:24.082Z,100427.19
2022-12-24T10:42:38.535Z,100436.47
2022-12-24T10:44:40.221Z,100421.28
2022-12-24T10:46:42.205Z,100424.50
2022-12-24T10:48:51.001Z,100426.41
2022-12-24T10:50:58.233Z,100428.13
2022-12-24T10:53:07.023Z,100430.44
2022-12-24T10:55:20.791Z,100436.66
2022-12-24T10:57:26.096Z,100438.28
2022-12-24T10:59:30.260Z,100442.47
2022-12-24T11:01:45.406Z,100450.78
2022-12-24T11:04:00.902Z,100443.59
2022-12-24T11:06:09.195Z,100445.19
2022-12-24T11:08:15.947Z,100451.94
2022-12-24T11:10:23.915Z,100455.81
2022-12-24T11:12:28.179Z,100453.22
2022-12-24T11:14:34.542Z,100445.47
2022-12-24T11:16:36.872Z,100455.03
2022-12-24T11:18:50.809Z,100447.47
2022-12-24T11:20:53.446Z,100454.09
2022-12-24T11:22:56.244Z,100469.41
2022-12-24T11:25:02.481Z,100463.41
2022-12-24T11:27:30.226Z,100454.94
2022-12-24T11:29:31.759Z,100457.16
2022-12-24T11:31:33.412Z,100452.06
2022-12-24T11:33:46.639Z,100466.81
2022-12-24T11:35:54.772Z,100463.91
2022-12-24T11:38:10.744Z,100469.13
2022-12-24T11:40:21.094Z,100477.19
2022-12-24T11:42:28.390Z,100477.13
2022-12-24T11:44:32.865Z,100480.09
2022-12-24T11:46:39.554Z,100473.78
2022-12-24T11:48:41.294Z,100479.78
2022-12-24T11:50:42.871Z,100483.53
2022-12-24T11:52:45.993Z,100485.09
2022-12-24T11:55:17.565Z,100477.38
2022-12-24T11:57:22.603Z,100476.59
2022-12-24T11:59:31.616Z,100483.06
2022-12-24T12:01:43.319Z,100473.78
2022-12-24T12:03:49.096Z,100472.59
2022-12-24T12:05:53.570Z,100490.09
2022-12-24T12:08:01.412Z,100490.75
2022-12-24T12:10:06.055Z,100478.72
2022-12-24T12:12:16.422Z,100484.28
2022-12-24T12:14:22.365Z,100490.44
2022-12-24T12:16:29.548Z,100497.16
2022-12-24T12:18:39.257Z,100495.44
2022-12-24T12:20:45.150Z,100502.47
2022-12-24T12:22:55.753Z,100504.50
2022-12-24T12:25:01.433Z,100500.03
2022-12-24T12:27:09.187Z,100504.19
2022-12-24T12:29:21.075Z,100510.72
2022-12-24T12:31:26.909Z,100514.72
2022-12-24T12:33:36.360Z,100505.97
2022-12-24T12:35:41.729Z,100505.03
2022-12-24T12:37:55.691Z,100512.69
2022-12-24T12:39:57.242Z,100511.34
2022-12-24T12:42:02.409Z,100520.88
2022-12-24T12:44:21.735Z,100527.22
2022-12-24T12:46:36.947Z,100521.84
2022-12-24T12:49:03.356Z,100530.28
2022-12-24T12:51:08.916Z,100538.00
2022-12-24T12:53:26.786Z,100533.72
2022-12-24T12:55:40.573Z,100539.88
2022-12-24T12:57:44.875Z,100531.34
2022-12-24T12:59:53.553Z,100537.75
2022-12-24T13:02:09.387Z,100538.38
2022-12-24T13:04:36.257Z,100534.78
2022-12-24T13:07:08.712Z,100537.91
2022-12-24T13:09:28.082Z,100532.75
2022-12-24T13:11:46.421Z,100539.78
2022-12-24T13:14:31.984Z,100543.69
2022-12-24T13:17:21.175Z,100542.53
2022-12-24T13:19:38.507Z,100535.63
2022-12-24T13:21:44.226Z,100540.06
2022-12-24T13:23:45.820Z,100542.13
2022-12-24T13:25:48.290Z,100538.69
2022-12-24T13:27:49.867Z,100538.69
2022-12-24T13:29:52.748Z,100545.56
2022-12-24T13:32:19.797Z,100544.28
2022-12-24T13:34:36.574Z,100553.66
2022-12-24T13:37:21.608Z,100557.56
2022-12-24T13:39:23.118Z,100563.94
2022-12-24T13:41:49.596Z,100573.66
2022-12-24T13:44:04.303Z,100573.72
2022-12-24T13:46:07.632Z,100585.41
2022-12-24T13:48:22.477Z,100586.06
2022-12-24T13:50:44.350Z,100595.34
2022-12-24T13:52:51.708Z,100590.09
2022-12-24T13:55:17.938Z,100596.00
2022-12-24T13:57:39.799Z,100597.00
2022-12-24T13:59:42.482Z,100601.06
2022-12-24T14:01:44.963Z,100594.34
2022-12-24T14:03:51.637Z,100599.19
2022-12-24T14:05:58.819Z,100605.75
2022-12-24T14:08:06.813Z,100607.97
2022-12-24T14:10:21.462Z,100612.81
2022-12-24T14:12:45.871Z,100615.06
2022-12-24T14:14:47.480Z,100618.28
2022-12-24T14:16:50.251Z,100627.31
2022-12-24T14:18:59.308Z,100624.28
2022-12-24T14:21:03.721Z,100629.50
2022-12-24T14:23:06.479Z,100627.00
2022-12-24T14:25:16.737Z,100627.31
2022-12-24T14:27:21.629Z,100631.16
2022-12-24T14:29:29.829Z,100632.47
2022-12-24T14:31:31.763Z,100634.03
2022-12-24T14:33:34.595Z,100627.72
2022-12-24T14:35:40.029Z,100634.47
2022-12-24T14:37:46.217Z,100638.06
2022-12-24T14:39:49.016Z,100647.16
2022-12-24T14:41:59.957Z,100635.56
2022-12-24T14:44:10.123Z,100647.69
2022-12-24T14:46:19.672Z,100648.13
2022-12-24T14:48:30.249Z,100654.16
2022-12-24T14:50:54.333Z,100653.22
2022-12-24T14:53:09.441Z,100662.97
2022-12-24T14:55:32.058Z,100652.28
2022-12-24T14:57:33.636Z,100664.06
2022-12-24T14:59:40.877Z,100664.91
2022-12-24T15:01:42.655Z,100668.94
2022-12-24T15:03:44.459Z,100674.78
2022-12-24T15:05:50.329Z,100680.56
2022-12-24T15:07:58.841Z,100680.06
2022-12-24T15:10:02.196Z,100685.25
2022-12-24T15:12:04.233Z,100686.31
2022-12-24T15:14:05.873Z,100692.13
2022-12-24T15:16:09.354Z,100700.72
2022-12-24T15:18:16.716Z,100687.09
2022-12-24T15:20:21.527Z,100699.22
2022-12-24T15:22:26.621Z,100706.88
2022-12-24T15:24:32.109Z,100701.97
2022-12-24T15:26:35.122Z,100710.72
2022-12-24T15:28:38.289Z,100707.81
2022-12-24T15:30:39.984Z,100722.84
2022-12-24T15:32:41.622Z,100725.72
2022-12-24T15:34:44.074Z,100726.50
2022-12-24T15:36:45.961Z,100738.56
2022-12-24T15:38:53.554Z,100726.22
2022-12-24T15:40:57.023Z,100729.16
2022-12-24T15:42:59.159Z,100728.34
2022-12-24T15:45:03.676Z,100726.97
2022-12-24T15:47:08.479Z,100737.03
2022-12-24T15:49:17.329Z,100740.28
2022-12-24T15:51:27.914Z,100738.56
2022-12-24T15:53:32.147Z,100732.88
2022-12-24T15:55:37.690Z,100729.56
2022-12-24T15:57:40.775Z,100746.66
2022-12-24T15:59:42.751Z,100750.16
2022-12-24T16:01:45.711Z,100752.34
2022-12-24T16:03:59.273Z,100755.81
2022-12-24T16:06:02.281Z,100749.03
2022-12-24T16:08:22.868Z,100755.81
2022-12-24T16:10:24.559Z,100758.97
2022-12-24T16:12:26.567Z,100766.16
2022-12-24T16:14:31.240Z,100758.84
2022-12-24T16:16:35.931Z,100770.13
2022-12-24T16:18:40.039Z,100772.78
2022-12-24T16:20:48.790Z,100776.50
2022-12-24T16:22:51.030Z,100772.31
2022-12-24T16:24:52.821Z,100782.56
2022-12-24T16:26:55.059Z,100775.16
2022-12-24T16:28:56.730Z,100773.44
2022-12-24T16:30:59.852Z,100769.53
2022-12-24T16:33:01.484Z,100775.44
2022-12-24T16:35:04.015Z,100780.13
2022-12-24T16:37:05.616Z,100776.16
2022-12-24T16:39:06.953Z,100772.38
2022-12-24T16:41:08.560Z,100777.00
2022-12-24T16:43:10.380Z,100782.84
2022-12-24T16:45:11.965Z,100775.56
2022-12-24T16:47:19.403Z,100787.28
2022-12-24T16:49:22.467Z,100789.22
2022-12-24T16:51:24.016Z,100794.25
2022-12-24T16:53:25.557Z,100801.53
2022-12-24T16:55:27.134Z,100803.78
2022-12-24T16:57:28.774Z,100805.63
2022-12-24T16:59:30.520Z,100807.09
2022-12-24T17:01:32.123Z,100794.69
2022-12-24T17:03:35.274Z,100805.78
2022-12-24T17:05:38.155Z,100801.13
2022-12-24T17:07:43.744Z,100808.16
2022-12-24T17:09:45.881Z,100811.31
2022-12-24T17:11:47.501Z,100810.34
2022-12-24T17:13:48.892Z,100813.41
2022-12-24T17:15:50.476Z,100822.88
2022-12-24T17:17:52.199Z,100824.63
2022-12-24T17:19:56.365Z,100827.13
2022-12-24T17:21:57.924Z,100828.66
2022-12-24T17:23:59.328Z,100835.16
2022-12-24T17:26:01.103Z,100836.94
2022-12-24T17:28:02.620Z,100838.81
2022-12-24T17:30:05.267Z,100837.75
2022-12-24T17:32:06.891Z,100830.53
2022-12-24T17:34:08.924Z,100844.63
2022-12-24T17:36:11.873Z,100837.31
2022-12-24T17:38:13.577Z,100842.72
2022-12-24T17:40:21.053Z,100842.84
2022-12-24T17:42:36.501Z,100844.97
2022-12-24T17:44:39.720Z,100848.16
2022-12-24T17:46:41.360Z,100851.94
2022-12-24T17:48:43.701Z,100852.91
2022-12-24T17:50:45.638Z,100853.47
2022-12-24T17:52:48.569Z,100852.66
2022-12-24T17:54:50.111Z,100855.91
2022-12-24T17:56:51.467Z,100858.63
2022-12-24T17:58:53.008Z,100861.97
2022-12-24T18:00:54.639Z,100860.97
2022-12-24T18:02:56.276Z,100865.13
2022-12-24T18:04:58.049Z,100880.13
2022-12-24T18:07:02.482Z,100878.47
2022-12-24T18:09:05.980Z,100882.44
2022-12-24T18:11:11.607Z,100871.09
2022-12-24T18:13:19.046Z,100888.69
2022-12-24T18:15:22.140Z,100875.66
2022-12-24T18:17:23.754Z,100887.94
2022-12-24T18:19:25.159Z,100888.88
2022-12-24T18:21:28.419Z,100884.69
2022-12-24T18:23:29.998Z,100892.94
2022-12-24T18:25:32.738Z,100896.38
2022-12-24T18:27:34.591Z,100895.72
2022-12-24T18:29:36.297Z,100894.97
2022-12-24T18:31:38.697Z,100894.81
2022-12-24T18:33:41.326Z,100887.25
2022-12-24T18:35:42.860Z,100899.22
2022-12-24T18:37:44.326Z,100904.91
2022-12-24T18:39:45.956Z,100899.53
2022-12-24T18:41:48.914Z,100902.50
2022-12-24T18:43:50.948Z,100908.63
2022-12-24T18:45:52.590Z,100910.69
2022-12-24T18:47:54.171Z,100911.50
2022-12-24T18:49:55.818Z,100919.59
2022-12-24T18:51:57.470Z,100912.44
2022-12-24T18:53:59.213Z,100925.75
2022-12-24T18:56:04.959Z,100917.59
2022-12-24T18:58:07.923Z,100925.63
2022-12-24T19:00:10.717Z,100922.28
2022-12-24T19:02:14.381Z,100924.47
2022-12-24T19:04:16.005Z,100925.75
2022-12-24T19:06:17.978Z,100920.84
2022-12-24T19:08:55.951Z,100930.72
2022-12-24T19:10:41.622Z,100937.22
2022-12-24T19:12:43.176Z,100925.88
2022-12-24T19:14:45.894Z,100926.16
2022-12-24T19:16:47.502Z,100934.56
2022-12-24T19:18:50.747Z,100940.22
2022-12-24T19:20:52.417Z,100937.88
2022-12-24T19:22:54.217Z,100942.66
2022-12-24T19:24:56.239Z,100935.38
2022-12-24T19:26:57.792Z,100936.59
2022-12-24T19:28:59.133Z,100937.66
2022-12-24T19:31:07.813Z,100937.66
2022-12-24T19:33:09.808Z,100934.88
2022-12-24T19:35:11.751Z,100935.88
2022-12-24T19:37:13.437Z,100935.50
2022-12-24T19:39:15.505Z,100934.88
2022-12-24T19:41:18.748Z,100948.44
2022-12-24T19:43:20.283Z,100947.94
2022-12-24T19:45:23.168Z,100947.84
2022-12-24T19:47:26.579Z,100944.69
2022-12-24T19:49:28.228Z,100960.78
2022-12-24T19:51:29.845Z,100965.47
2022-12-24T19:53:31.278Z,100964.00
2022-12-24T19:55:32.969Z,100967.38
2022-12-24T19:57:34.786Z,100969.19
2022-12-24T19:59:37.655Z,100967.63
2022-12-24T20:01:39.442Z,100973.25
2022-12-24T20:03:43.300Z,100964.72
2022-12-24T20:05:45.175Z,100963.69
2022-12-24T20:07:46.740Z,100954.72
2022-12-24T20:09:48.357Z,100965.22
2022-12-24T20:11:49.851Z,100961.38
2022-12-24T20:13:51.397Z,100965.63
2022-12-24T20:15:52.780Z,100964.00
2022-12-24T20:17:54.371Z,100961.97
2022-12-24T20:19:57.083Z,100966.47
2022-12-24T20:21:58.706Z,100967.16
2022-12-24T20:24:00.128Z,100969.69
2022-12-24T20:26:03.480Z,100969.63
2022-12-24T20:28:05.700Z,100958.50
2022-12-24T20:30:08.496Z,100968.56
2022-12-24T20:32:10.138Z,100974.47
2022-12-24T20:34:14.462Z,100964.25
2022-12-24T20:36:19.870Z,100972.56
2022-12-24T20:38:21.434Z,100973.97
2022-12-24T20:40:22.869Z,100965.34
2022-12-24T20:42:24.497Z,100971.63
2022-12-24T20:44:25.852Z,100979.41
2022-12-24T20:46:27.995Z,100975.03
2022-12-24T20:48:29.748Z,100981.16
2022-12-24T20:50:31.636Z,100988.03
2022-12-24T20:52:34.556Z,100983.75
2022-12-24T20:54:36.113Z,100988.38
2022-12-24T20:56:37.569Z,101002.66
2022-12-24T20:58:39.199Z,100987.28
2022-12-24T21:00:40.662Z,100995.56
2022-12-24T21:02:42.768Z,100993.31
2022-12-24T21:04:44.562Z,100999.59
2022-12-24T21:06:45.919Z,101005.06
2022-12-24T21:08:50.614Z,101011.22
2022-12-24T21:10:52.673Z,100996.19
2022-12-24T21:12:54.233Z,101008.69
2022-12-24T21:14:55.559Z,101009.91
2022-12-24T21:16:57.228Z,100996.19
2022-12-24T21:18:59.300Z,101007.28
2022-12-24T21:21:00.909Z,101005.19
2022-12-24T21:23:02.346Z,101013.31
2022-12-24T21:25:07.236Z,101024.50
2022-12-24T21:27:08.861Z,101030.56
2022-12-24T21:29:10.457Z,101026.41
2022-12-24T21:31:14.256Z,101019.38
2022-12-24T21:33:15.954Z,101021.66
2022-12-24T21:35:17.453Z,101013.50
2022-12-24T21:37:19.309Z,101015.03
2022-12-24T21:39:20.850Z,101015.84
2022-12-24T21:41:23.727Z,101035.63
2022-12-24T21:43:25.321Z,101031.41
2022-12-24T21:45:26.940Z,101039.19
2022-12-24T21:47:28.341Z,101039.78
2022-12-24T21:49:29.917Z,101034.69
2022-12-24T21:51:31.666Z,101043.47
2022-12-24T21:53:33.251Z,101041.97
2022-12-24T21:55:34.875Z,101045.78
2022-12-24T21:57:37.670Z,101052.09
2022-12-24T21:59:39.520Z,101051.88
2022-12-24T22:01:41.109Z,101055.78
2022-12-24T22:03:42.965Z,101067.91
2022-12-24T22:05:44.629Z,101067.19
2022-12-24T22:07:45.995Z,101077.16
2022-12-24T22:09:47.663Z,101076.94
2022-12-24T22:11:54.415Z,101068.13
2022-12-24T22:13:58.059Z,101076.19
2022-12-24T22:15:59.586Z,101081.44
2022-12-24T22:18:01.172Z,101078.91
2022-12-24T22:20:03.202Z,101081.53
2022-12-24T22:22:04.856Z,101079.59
2022-12-24T22:24:07.060Z,101078.50
2022-12-24T22:26:11.443Z,101074.94
2022-12-24T22:28:15.507Z,101087.97
2022-12-24T22:30:19.009Z,101096.03
2022-12-24T22:32:20.923Z,101082.59
2022-12-24T22:34:22.520Z,101080.94
2022-12-24T22:36:23.908Z,101082.47
2022-12-24T22:38:25.447Z,101090.50
2022-12-24T22:40:26.972Z,101098.72
2022-12-24T22:42:31.116Z,101104.19
2022-12-24T22:44:32.798Z,101106.75
2022-12-24T22:46:36.031Z,101105.66
2022-12-24T22:48:38.273Z,101110.31
2022-12-24T22:50:40.092Z,101097.34
2022-12-24T22:52:41.671Z,101109.09
2022-12-24T22:54:43.095Z,101108.34
2022-12-24T22:56:44.632Z,101109.34
2022-12-24T22:58:46.446Z,101112.16
2022-12-24T23:00:48.015Z,101123.09
2022-12-24T23:02:50.930Z,101121.63
2022-12-24T23:04:52.542Z,101121.84
2022-12-24T23:06:54.161Z,101135.09
2022-12-24T23:08:55.525Z,101134.50
2022-12-24T23:11:06.423Z,101126.81
2022-12-24T23:13:14.458Z,101132.88
2022-12-24T23:15:16.723Z,101133.91
2022-12-24T23:17:18.381Z,101132.38
2022-12-24T23:19:21.147Z,101133.09
2022-12-24T23:21:22.977Z,101117.16
2022-12-24T23:23:24.770Z,101129.50
2022-12-24T23:25:26.467Z,101126.19
2022-12-24T23:27:28.015Z,101130.75
2022-12-24T23:29:30.062Z,101126.28
2022-12-24T23:31:31.691Z,101122.09
2022-12-24T23:33:34.138Z,101135.44
2022-12-24T23:35:37.133Z,101138.69
2022-12-24T23:37:38.752Z,101133.16
2022-12-24T23:39:40.131Z,101133.56
2022-12-24T23:41:46.027Z,101126.06
2022-12-24T23:43:47.908Z,101141.03
2022-12-24T23:45:52.221Z,101135.94
2022-12-24T23:47:53.791Z,101136.88
2022-12-24T23:49:55.303Z,101135.19